aviador You're here:

KBLU Decoded Metar

EMIGRANT GAP in CA, USA
Report Time2017-08-20 12:52:00
UTC Time2017-08-20 13:40:13
Flight Rules vfr VFR
WindCalm
Visibility9999 m
Phenomena:N/A
Clouds:N/A
Expected CloudBase > 6,000 ft AGL from Temp-Dew spread
CeilingNone
Temp21°C (ISA +16)
Dew Point06°C (38% RH)
AAT20.1°C
QNH1019 hPa
Density Alt7,110 ft
Elevation5,279 ft
Report Wrong Elevation
Raw Report
METAR KBLU 201252Z AUTO 00000KT 10SM CLR 21/06 A3010 RMK AO2 SLP086
T02060056 TSNO $=

Extra information for KBLU:More info

Metar Taf Metar & Taf Last 4 Metars F.Rules Stats Wind Profile Meteogram Temp Stats Airport Information Weather charts Add Link Nearby VenuesMetar ALERT Operation Metar Decoded Social comments

AIRNAV info for KBLU